Time;durP1;ratioP1;P1;durP2;ratioP2;P2;SDS_P1;SDS_P2;PMS_P1;PMS_P2;Temp;Humidity;BMP_temperature;BMP_pressure;BME280_temperature;BME280_humidity;BME280_pressure;Samples;Min_cycle;Max_cycle;Signal;HPM_P1;HPM_P2
2022/08/17 00:00:35;;;;;;;30.73;25.58;;;18.40;99.90;;;;;;5035325;28;20128;-68
2022/08/17 00:03:07;;;;;;;33.47;25.15;;;18.40;99.90;;;;;;5036304;28;20715;-67
2022/08/17 00:05:40;;;;;;;35.03;26.02;;;18.40;99.90;;;;;;5023940;28;20041;-68
2022/08/17 00:08:06;;;;;;;33.63;25.15;;;18.30;99.90;;;;;;5032148;28;20052;-68
2022/08/17 00:10:33;;;;;;;33.33;26.80;;;18.40;99.90;;;;;;5039733;28;20111;-68
2022/08/17 00:13:03;;;;;;;34.40;27.92;;;18.30;99.90;;;;;;5035657;28;20038;-68
2022/08/17 00:15:28;;;;;;;36.67;28.58;;;18.40;99.90;;;;;;5041694;28;21435;-68
2022/08/17 00:17:54;;;;;;;32.95;28.23;;;18.40;99.90;;;;;;5056060;28;20497;-68
2022/08/17 00:20:20;;;;;;;35.85;27.23;;;18.40;99.90;;;;;;5042441;28;20037;-68
2022/08/17 00:22:45;;;;;;;33.38;27.65;;;18.30;99.90;;;;;;5036994;28;20128;-67
2022/08/17 00:25:15;;;;;;;39.47;27.95;;;18.30;99.90;;;;;;5039598;28;20385;-68
2022/08/17 00:27:40;;;;;;;34.50;26.77;;;18.30;99.90;;;;;;5037058;28;20052;-68
2022/08/17 00:30:09;;;;;;;34.55;28.13;;;18.40;99.90;;;;;;5032694;28;20044;-67
2022/08/17 00:32:41;;;;;;;37.83;28.83;;;18.30;99.90;;;;;;5051090;28;20037;-67
2022/08/17 00:35:08;;;;;;;36.10;28.13;;;18.30;99.90;;;;;;5036913;28;20033;-68
2022/08/17 00:37:34;;;;;;;39.72;29.25;;;18.20;99.90;;;;;;5034597;28;20037;-68
2022/08/17 00:39:59;;;;;;;35.83;28.70;;;18.30;99.90;;;;;;5041427;28;20237;-68
2022/08/17 00:42:25;;;;;;;38.95;28.85;;;18.20;99.90;;;;;;5034750;28;20614;-68
2022/08/17 00:44:51;;;;;;;40.30;30.35;;;18.30;99.90;;;;;;5038354;28;20182;-68
2022/08/17 00:47:16;;;;;;;39.95;30.15;;;18.30;99.90;;;;;;5037757;28;20055;-69
2022/08/17 00:49:42;;;;;;;41.45;30.98;;;18.40;99.90;;;;;;5045944;28;20079;-67
2022/08/17 00:52:15;;;;;;;44.25;32.60;;;18.30;99.90;;;;;;5044200;28;20056;-68
2022/08/17 00:54:45;;;;;;;45.20;33.13;;;18.30;99.90;;;;;;5035962;28;20410;-68
2022/08/17 00:57:33;;;;;;;42.22;31.98;;;18.30;99.90;;;;;;5045283;28;20040;-68
2022/08/17 01:00:25;;;;;;;41.53;32.00;;;18.30;99.90;;;;;;5043918;28;20051;-68
2022/08/17 01:02:56;;;;;;;44.22;32.58;;;18.20;99.90;;;;;;5059381;28;20491;-68
2022/08/17 01:05:28;;;;;;;43.97;32.53;;;18.30;99.90;;;;;;5043957;28;20104;-67
2022/08/17 01:07:54;;;;;;;39.63;30.05;;;18.30;99.90;;;;;;5041385;28;20124;-67
2022/08/17 01:10:25;;;;;;;42.25;31.52;;;18.30;99.90;;;;;;5044986;28;20484;-67
2022/08/17 01:12:51;;;;;;;38.33;29.15;;;18.30;99.90;;;;;;5058708;28;20033;-68
2022/08/17 01:15:17;;;;;;;37.55;29.95;;;18.30;99.90;;;;;;5045145;28;20047;-69
2022/08/17 01:17:44;;;;;;;34.15;27.88;;;18.10;99.90;;;;;;5044176;28;20029;-68
2022/08/17 01:20:10;;;;;;;45.88;33.65;;;18.10;99.90;;;;;;5043173;28;20045;-68
2022/08/17 01:22:35;;;;;;;37.50;30.15;;;18.10;99.90;;;;;;5039888;28;20106;-68
2022/08/17 01:25:06;;;;;;;34.60;24.60;;;18.10;99.90;;;;;;5045484;28;20075;-69
2022/08/17 01:27:32;;;;;;;38.70;29.58;;;18.10;99.90;;;;;;5044666;28;20037;-68
2022/08/17 01:30:01;;;;;;;39.38;27.02;;;18.00;99.90;;;;;;5045477;28;20469;-68
2022/08/17 01:32:29;;;;;;;33.97;26.50;;;18.00;99.90;;;;;;5042787;28;20136;-68
2022/08/17 01:34:55;;;;;;;30.17;23.02;;;18.10;99.90;;;;;;5061491;28;20037;-69
2022/08/17 01:37:29;;;;;;;27.48;21.92;;;17.90;99.90;;;;;;5044310;28;20043;-69
2022/08/17 01:40:18;;;;;;;87.93;23.98;;;17.80;99.90;;;;;;5045269;28;20025;-70
2022/08/17 01:42:50;;;;;;;43.65;31.63;;;17.70;99.90;;;;;;5036322;28;20410;-69
2022/08/17 01:45:21;;;;;;;43.85;31.92;;;17.80;99.90;;;;;;5054917;28;20036;-69
2022/08/17 01:47:48;;;;;;;35.17;26.92;;;17.70;99.90;;;;;;5045582;28;20029;-69
2022/08/17 01:50:17;;;;;;;41.92;30.73;;;17.70;99.90;;;;;;5042840;28;20095;-69
2022/08/17 01:52:45;;;;;;;41.95;30.17;;;17.70;99.90;;;;;;5038906;28;20037;-70
2022/08/17 01:55:14;;;;;;;43.38;30.02;;;17.70;99.90;;;;;;5044143;28;20208;-70
2022/08/17 01:57:40;;;;;;;33.75;25.17;;;17.70;99.90;;;;;;5044202;28;20040;-69
2022/08/17 02:00:10;;;;;;;32.25;25.23;;;17.80;99.90;;;;;;5042904;28;20037;-70
2022/08/17 02:02:36;;;;;;;26.98;22.15;;;17.70;99.90;;;;;;5045595;28;20045;-70
2022/08/17 02:05:02;;;;;;;37.40;21.83;;;17.70;99.90;;;;;;5043711;28;20086;-69
2022/08/17 02:07:28;;;;;;;27.00;22.35;;;17.50;99.90;;;;;;5041258;28;20052;-70
2022/08/17 02:09:53;;;;;;;28.63;23.73;;;17.40;99.90;;;;;;5043316;28;20425;-70
2022/08/17 02:12:19;;;;;;;29.45;20.70;;;17.40;99.90;;;;;;5034732;28;20555;-70
2022/08/17 02:14:45;;;;;;;34.88;25.48;;;17.40;99.90;;;;;;5035737;28;20045;-70
2022/08/17 02:17:10;;;;;;;22.67;20.17;;;17.50;99.90;;;;;;5029544;28;20546;-69
2022/08/17 02:19:36;;;;;;;38.65;28.73;;;17.40;99.90;;;;;;5035897;28;20032;-70
2022/08/17 02:22:01;;;;;;;22.95;19.90;;;17.50;99.90;;;;;;5033146;28;20036;-69
2022/08/17 02:24:33;;;;;;;24.58;20.55;;;17.60;99.90;;;;;;5032423;28;20762;-69
2022/08/17 02:26:58;;;;;;;26.75;21.60;;;17.50;99.90;;;;;;5032845;28;20537;-69
2022/08/17 02:29:25;;;;;;;35.00;26.55;;;17.50;99.90;;;;;;5020594;28;20041;-69
2022/08/17 02:31:51;;;;;;;23.65;20.52;;;17.60;99.90;;;;;;5027979;28;20495;-69
2022/08/17 02:34:17;;;;;;;33.40;24.98;;;17.60;99.90;;;;;;5032792;28;20052;-69
2022/08/17 02:36:42;;;;;;;56.20;36.78;;;17.60;99.90;;;;;;5036480;28;20037;-70
2022/08/17 02:39:10;;;;;;;35.30;26.58;;;17.60;99.90;;;;;;5032919;28;20040;-70
2022/08/17 02:41:37;;;;;;;51.28;34.90;;;17.70;99.90;;;;;;5038062;28;20048;-70
2022/08/17 02:44:04;;;;;;;40.95;29.88;;;17.70;99.90;;;;;;5040531;28;20712;-70
2022/08/17 02:46:31;;;;;;;48.83;33.53;;;17.70;99.90;;;;;;5024178;28;20052;-70
2022/08/17 02:48:57;;;;;;;47.38;34.70;;;17.70;99.90;;;;;;5038154;28;20411;-70
2022/08/17 02:51:22;;;;;;;50.35;35.78;;;17.70;99.90;;;;;;5035727;28;20040;-70
2022/08/17 02:53:48;;;;;;;52.25;35.15;;;17.70;99.90;;;;;;5038642;28;20056;-70
2022/08/17 02:56:14;;;;;;;62.10;39.50;;;17.80;99.90;;;;;;5055549;28;20037;-71
2022/08/17 02:58:40;;;;;;;61.63;41.20;;;17.70;99.90;;;;;;5043503;28;20034;-70
2022/08/17 03:01:07;;;;;;;63.47;41.45;;;17.80;99.90;;;;;;5040714;28;20403;-70
2022/08/17 03:03:38;;;;;;;59.67;39.58;;;17.80;99.90;;;;;;5038342;28;20092;-70
2022/08/17 03:06:04;;;;;;;60.85;40.03;;;17.80;99.90;;;;;;5037933;28;20483;-70
2022/08/17 03:08:30;;;;;;;61.20;39.90;;;17.80;99.90;;;;;;5039905;28;20045;-71
2022/08/17 03:10:56;;;;;;;58.50;39.90;;;17.90;99.90;;;;;;5017042;28;20033;-70
2022/08/17 03:13:22;;;;;;;63.75;40.05;;;17.90;99.90;;;;;;5050522;28;20095;-70
2022/08/17 03:15:48;;;;;;;59.17;40.30;;;17.80;99.90;;;;;;5041791;28;20495;-71
2022/08/17 03:18:18;;;;;;;61.53;39.60;;;17.80;99.90;;;;;;5038300;28;20047;-70
2022/08/17 03:20:43;;;;;;;61.85;39.95;;;17.90;99.90;;;;;;5040590;28;20040;-71
2022/08/17 03:23:09;;;;;;;54.40;38.78;;;17.90;99.90;;;;;;5035561;28;20056;-70
2022/08/17 03:25:41;;;;;;;60.33;38.15;;;17.90;99.90;;;;;;5054162;28;20373;-71
2022/08/17 03:28:08;;;;;;;57.75;37.88;;;17.90;99.90;;;;;;5024699;28;20041;-71
2022/08/17 03:30:34;;;;;;;52.72;37.35;;;17.80;99.90;;;;;;5036205;28;20052;-71
2022/08/17 03:33:02;;;;;;;53.72;37.50;;;17.90;99.90;;;;;;5039955;28;20477;-71
2022/08/17 03:35:30;;;;;;;55.08;37.25;;;17.90;99.90;;;;;;5040963;28;20114;-71
2022/08/17 03:37:57;;;;;;;62.70;40.40;;;17.80;99.90;;;;;;5036770;28;20087;-71
2022/08/17 03:40:23;;;;;;;58.70;37.72;;;17.80;99.90;;;;;;5044143;28;20476;-71
2022/08/17 03:42:52;;;;;;;56.75;38.67;;;17.90;99.90;;;;;;5043946;28;20063;-71
2022/08/17 03:56:40;;;;;;;52.60;37.38;;;17.80;99.90;;;;;;5050613;28;20063;-71
2022/08/17 03:56:43;;;;;;;49.00;34.38;;;17.80;99.90;;;;;;5047691;28;20399;-70
2022/08/17 03:59:18;;;;;;;54.17;36.25;;;17.90;99.90;;;;;;5042596;28;20037;-70
2022/08/17 04:01:46;;;;;;;54.55;36.67;;;17.80;99.90;;;;;;5058668;28;20037;-70
2022/08/17 04:04:12;;;;;;;55.85;37.42;;;17.80;99.90;;;;;;5044259;28;20060;-71
2022/08/17 04:06:40;;;;;;;53.72;36.55;;;17.90;99.90;;;;;;5043488;28;20045;-71
2022/08/17 04:09:06;;;;;;;53.40;35.40;;;17.90;99.90;;;;;;5046971;28;20037;-70
2022/08/17 04:11:33;;;;;;;52.10;36.35;;;17.90;99.90;;;;;;5042596;28;20045;-71
2022/08/17 04:14:00;;;;;;;55.42;38.03;;;17.80;99.90;;;;;;5036393;28;20055;-69
2022/08/17 04:16:25;;;;;;;54.90;37.13;;;17.90;99.90;;;;;;5043676;28;20040;-70
2022/08/17 04:18:51;;;;;;;49.88;36.55;;;17.80;99.90;;;;;;5042055;28;20361;-71
2022/08/17 04:21:18;;;;;;;53.10;36.15;;;17.90;99.90;;;;;;5033713;28;20465;-71
2022/08/17 04:23:45;;;;;;;48.80;34.33;;;17.80;99.90;;;;;;5038136;28;20033;-70
2022/08/17 04:26:11;;;;;;;48.95;33.78;;;17.80;99.90;;;;;;5060140;28;20045;-70
2022/08/17 04:28:37;;;;;;;50.20;34.83;;;17.80;99.90;;;;;;5037395;28;20047;-70
2022/08/17 04:31:03;;;;;;;49.72;35.50;;;17.90;99.90;;;;;;5039403;28;20036;-70
2022/08/17 04:33:29;;;;;;;47.67;34.05;;;17.80;99.90;;;;;;5041543;28;20060;-70
2022/08/17 04:36:01;;;;;;;53.58;36.42;;;17.80;99.90;;;;;;5058186;28;20463;-70
2022/08/17 04:38:31;;;;;;;50.03;35.13;;;17.90;99.90;;;;;;5036786;28;20033;-69
2022/08/17 04:43:43;;;;;;;53.97;36.85;;;17.90;99.90;;;;;;5048622;28;20090;-71
2022/08/17 04:46:16;;;;;;;55.90;38.70;;;17.90;99.90;;;;;;5041306;28;20099;-71
2022/08/17 04:48:47;;;;;;;51.20;37.53;;;17.80;99.90;;;;;;5034938;28;20049;-70
2022/08/17 04:51:17;;;;;;;52.17;37.28;;;18.00;99.90;;;;;;5035199;28;20509;-71
2022/08/17 04:53:45;;;;;;;52.80;36.78;;;17.90;99.90;;;;;;5040175;28;20049;-70
2022/08/17 04:56:14;;;;;;;52.33;36.25;;;17.90;99.90;;;;;;5033806;28;20095;-70
2022/08/17 04:58:41;;;;;;;51.67;36.00;;;17.90;99.90;;;;;;5039958;28;20059;-69
2022/08/17 05:01:07;;;;;;;51.30;35.28;;;18.10;99.90;;;;;;5043683;28;20033;-69
2022/08/17 05:03:33;;;;;;;53.17;36.30;;;18.00;99.90;;;;;;5045243;28;20075;-70
2022/08/17 05:05:58;;;;;;;49.25;35.53;;;18.00;99.90;;;;;;5043085;28;20040;-71
2022/08/17 05:08:24;;;;;;;55.75;35.92;;;18.00;99.90;;;;;;5042862;28;20055;-70
2022/08/17 05:10:50;;;;;;;54.05;36.13;;;18.10;99.90;;;;;;5044069;28;20036;-70
2022/08/17 05:13:19;;;;;;;54.72;36.30;;;18.10;99.90;;;;;;5044970;28;20084;-70
2022/08/17 05:15:47;;;;;;;53.80;35.95;;;18.20;99.90;;;;;;5044338;28;20067;-70
2022/08/17 05:18:12;;;;;;;55.85;37.05;;;18.20;99.90;;;;;;5043619;28;20048;-71
2022/08/17 05:20:40;;;;;;;55.00;37.08;;;18.20;99.90;;;;;;5040343;28;20041;-70
2022/08/17 05:23:09;;;;;;;55.55;38.38;;;18.30;99.90;;;;;;5045326;28;20072;-70
2022/08/17 05:25:39;;;;;;;53.90;37.05;;;18.30;99.90;;;;;;5045552;28;20045;-70
2022/08/17 05:28:06;;;;;;;55.65;36.95;;;18.20;99.90;;;;;;5044337;28;20114;-70
2022/08/17 05:30:33;;;;;;;52.22;35.13;;;18.30;99.90;;;;;;5044459;28;20463;-70
2022/08/17 05:33:08;;;;;;;63.10;40.03;;;18.50;99.90;;;;;;5044577;28;20460;-69
2022/08/17 05:35:37;;;;;;;55.80;37.90;;;18.50;99.90;;;;;;5044477;28;20044;-69
2022/08/17 05:38:03;;;;;;;56.00;38.60;;;18.60;99.90;;;;;;5040531;28;20381;-70
2022/08/17 05:40:30;;;;;;;60.97;39.15;;;18.50;99.90;;;;;;5042755;28;20068;-70
2022/08/17 05:43:12;;;;;;;57.60;38.30;;;18.60;99.90;;;;;;5036751;28;20037;-69
2022/08/17 05:45:50;;;;;;;61.03;38.28;;;18.60;99.90;;;;;;5044556;28;20450;-68
2022/08/17 05:48:15;;;;;;;54.72;37.40;;;18.70;99.90;;;;;;5043176;28;20033;-69
2022/08/17 05:51:05;;;;;;;58.55;39.20;;;18.80;99.90;;;;;;5044070;28;20048;-68
2022/08/17 05:54:14;;;;;;;66.95;42.08;;;18.90;99.90;;;;;;5061866;28;20041;-69
2022/08/17 05:57:12;;;;;;;65.75;43.92;;;18.80;99.90;;;;;;5042798;28;20090;-72
2022/08/17 05:59:51;;;;;;;70.97;45.05;;;18.70;99.90;;;;;;5036792;28;20037;-70
2022/08/17 06:02:43;;;;;;;72.43;44.47;;;18.60;99.90;;;;;;5043583;28;20044;-68
2022/08/17 06:05:32;;;;;;;71.00;42.63;;;18.70;99.90;;;;;;5025360;28;20081;-67
2022/08/17 06:08:01;;;;;;;70.95;45.20;;;18.80;99.90;;;;;;5041359;28;20037;-69
2022/08/17 06:10:49;;;;;;;74.30;46.72;;;18.80;99.90;;;;;;5043154;28;20052;-69
2022/08/17 06:13:40;;;;;;;71.38;43.97;;;18.60;99.90;;;;;;5045175;28;20041;-67
2022/08/17 06:16:08;;;;;;;59.30;39.05;;;18.80;99.90;;;;;;5039910;28;20078;-67
2022/08/17 06:18:42;;;;;;;56.10;37.03;;;18.90;99.90;;;;;;5049800;28;20045;-66
2022/08/17 06:21:11;;;;;;;60.67;39.58;;;19.00;99.90;;;;;;5046092;28;20033;-68
2022/08/17 06:24:26;;;;;;;58.40;38.63;;;18.90;99.90;;;;;;5048174;28;20053;-69
2022/08/17 06:26:56;;;;;;;58.58;40.45;;;18.80;99.90;;;;;;5045975;28;20075;-69
2022/08/17 06:29:30;;;;;;;63.50;42.03;;;18.90;99.90;;;;;;5048339;28;20123;-69
2022/08/17 06:31:56;;;;;;;56.38;39.25;;;19.00;99.90;;;;;;5046790;28;20044;-67
2022/08/17 06:34:22;;;;;;;54.42;32.80;;;18.90;99.90;;;;;;5049200;28;20116;-65
2022/08/17 06:36:59;;;;;;;55.65;35.30;;;19.00;99.90;;;;;;5051471;28;20128;-66
2022/08/17 06:39:37;;;;;;;52.83;32.30;;;19.10;99.90;;;;;;5063503;28;20048;-66
2022/08/17 06:42:12;;;;;;;57.67;36.92;;;19.30;99.90;;;;;;5052402;28;20128;-65
2022/08/17 06:44:45;;;;;;;57.47;38.13;;;19.30;99.90;;;;;;5047987;28;20488;-66
2022/08/17 06:47:28;;;;;;;;;;;19.20;99.90;;;;;;5049275;28;20506;-68
2022/08/17 06:50:15;;;;;;;59.78;40.42;;;19.20;99.90;;;;;;5049654;28;19917;-68
2022/08/17 06:52:52;;;;;;;66.32;43.03;;;19.30;99.90;;;;;;5051080;28;20037;-69
2022/08/17 06:55:43;;;;;;;68.50;43.63;;;19.00;99.90;;;;;;5043925;28;20037;-68
2022/08/17 06:58:10;;;;;;;67.97;45.05;;;19.00;99.90;;;;;;5063582;28;20040;-69
2022/08/17 07:00:43;;;;;;;72.85;46.00;;;18.90;99.90;;;;;;5063578;28;20557;-69
2022/08/17 07:03:30;;;;;;;61.33;39.03;;;18.80;99.90;;;;;;5063254;28;20364;-68
2022/08/17 07:06:00;;;;;;;50.88;30.60;;;18.90;99.90;;;;;;5067172;28;20080;-68
2022/08/17 07:08:37;;;;;;;61.22;37.80;;;19.00;99.90;;;;;;5046206;28;20381;-67
2022/08/17 07:11:11;;;;;;;65.22;40.50;;;19.00;99.90;;;;;;5046889;28;20051;-66
2022/08/17 07:14:04;;;;;;;58.72;33.50;;;19.00;99.90;;;;;;5047514;28;20053;-69
2022/08/17 07:16:34;;;;;;;64.68;39.05;;;19.10;99.90;;;;;;5052633;28;20075;-66
2022/08/17 07:19:00;;;;;;;68.60;37.97;;;18.90;99.90;;;;;;5035939;28;20110;-66
2022/08/17 07:21:36;;;;;;;60.10;34.10;;;19.00;99.90;;;;;;5052329;28;20119;-65
2022/08/17 07:24:19;;;;;;;55.00;32.60;;;18.80;99.90;;;;;;5067919;28;20126;-67
2022/08/17 07:26:48;;;;;;;64.88;42.42;;;18.70;99.90;;;;;;5050557;28;20053;-67
2022/08/17 07:29:17;;;;;;;68.75;41.17;;;18.90;99.90;;;;;;5045748;28;20415;-65
2022/08/17 07:31:43;;;;;;;70.32;44.20;;;18.70;99.90;;;;;;5062896;28;20499;-66
2022/08/17 07:34:14;;;;;;;64.35;42.33;;;18.90;99.90;;;;;;5044630;28;20037;-65
2022/08/17 07:36:41;;;;;;;75.78;43.03;;;18.80;99.90;;;;;;5068183;28;20123;-65
2022/08/17 07:39:08;;;;;;;63.92;40.63;;;18.90;99.90;;;;;;5051627;28;20037;-67
2022/08/17 07:41:38;;;;;;;59.38;38.28;;;18.80;99.90;;;;;;5051986;28;20037;-66
2022/08/17 07:44:11;;;;;;;60.15;37.47;;;18.90;99.90;;;;;;5051565;28;20044;-66
2022/08/17 07:49:38;;;;;;;68.95;41.28;;;18.70;99.90;;;;;;5052394;28;20092;-66
2022/08/17 07:52:24;;;;;;;67.63;40.10;;;18.70;99.90;;;;;;5050246;28;20049;-69
2022/08/17 07:54:50;;;;;;;65.95;35.65;;;18.70;99.90;;;;;;5049641;28;20446;-71
2022/08/17 07:57:18;;;;;;;77.60;41.53;;;18.70;99.90;;;;;;5049849;28;20033;-72
2022/08/17 07:59:59;;;;;;;70.75;42.40;;;18.70;99.90;;;;;;5048917;28;20040;-73
2022/08/17 08:02:39;;;;;;;73.63;39.97;;;18.60;99.90;;;;;;5050240;28;20045;-69
2022/08/17 08:05:16;;;;;;;86.22;49.92;;;18.70;99.90;;;;;;5051315;28;20040;-69
2022/08/17 08:08:14;;;;;;;75.80;40.55;;;19.00;99.90;;;;;;5051971;28;20049;-70
2022/08/17 08:10:42;;;;;;;81.45;47.88;;;18.80;99.90;;;;;;5060393;28;20552;-70
2022/08/17 08:13:13;;;;;;;88.43;47.40;;;19.10;99.90;;;;;;5063086;28;20391;-72
2022/08/17 08:15:42;;;;;;;83.10;47.08;;;19.00;99.90;;;;;;5061636;28;20045;-67
2022/08/17 08:18:34;;;;;;;85.18;49.08;;;18.90;99.90;;;;;;5043953;28;20100;-69
2022/08/17 08:21:08;;;;;;;86.38;49.53;;;19.20;99.90;;;;;;5050777;28;20051;-70
2022/08/17 08:23:45;;;;;;;87.00;48.95;;;19.00;99.90;;;;;;5053379;28;20560;-70
2022/08/17 08:26:22;;;;;;;81.90;47.72;;;19.00;99.90;;;;;;5049210;28;20487;-70
2022/08/17 08:29:07;;;;;;;78.85;43.00;;;19.40;99.90;;;;;;5053719;28;20045;-70
2022/08/17 08:31:59;;;;;;;87.28;48.92;;;19.50;99.90;;;;;;5047365;28;20045;-69
2022/08/17 08:34:44;;;;;;;87.25;48.28;;;19.40;99.90;;;;;;5047339;28;20040;-73
2022/08/17 08:37:31;;;;;;;91.93;49.05;;;19.40;99.90;;;;;;5043836;28;20036;-73
2022/08/17 08:40:20;;;;;;;93.45;50.10;;;19.40;99.90;;;;;;5044617;28;20037;-75
2022/08/17 08:42:55;;;;;;;82.15;47.72;;;19.10;99.90;;;;;;5042008;28;20037;-70
2022/08/17 08:45:46;;;;;;;86.18;48.75;;;19.50;99.90;;;;;;5043330;28;20060;-75
2022/08/17 08:48:40;;;;;;;87.72;50.08;;;19.50;99.90;;;;;;5043244;28;20056;-74
2022/08/17 08:51:09;;;;;;;80.93;46.55;;;19.40;99.90;;;;;;5045605;28;20073;-70
2022/08/17 08:54:02;;;;;;;80.53;46.97;;;19.80;99.90;;;;;;5048786;28;20063;-73
2022/08/17 08:56:43;;;;;;;80.47;47.55;;;19.90;99.90;;;;;;5026695;28;20046;-75
2022/08/17 08:59:21;;;;;;;76.63;47.03;;;20.00;99.90;;;;;;5048215;28;20055;-73
2022/08/17 09:02:10;;;;;;;82.72;47.20;;;20.20;99.90;;;;;;5048287;28;20052;-71
2022/08/17 09:05:10;;;;;;;71.45;45.53;;;20.50;99.90;;;;;;5048630;28;20064;-72
2022/08/17 09:07:57;;;;;;;69.70;44.50;;;21.00;99.90;;;;;;5049114;28;20037;-75
2022/08/17 09:10:40;;;;;;;69.55;45.38;;;20.90;99.90;;;;;;5052981;28;20033;-69
2022/08/17 09:13:09;;;;;;;67.35;44.38;;;20.90;99.90;;;;;;5050129;28;20496;-73
2022/08/17 09:15:41;;;;;;;68.20;45.05;;;21.30;99.90;;;;;;5048970;28;20041;-71
2022/08/17 09:18:32;;;;;;;69.35;44.25;;;21.30;99.90;;;;;;5049141;28;20033;-67
2022/08/17 09:21:17;;;;;;;63.65;40.72;;;21.30;99.90;;;;;;5044682;28;20040;-69
2022/08/17 09:23:58;;;;;;;64.05;44.08;;;21.50;99.90;;;;;;5050003;28;20076;-67
2022/08/17 09:26:59;;;;;;;60.05;42.78;;;21.40;99.90;;;;;;5049202;28;20529;-68
2022/08/17 09:29:31;;;;;;;62.55;42.90;;;21.30;99.90;;;;;;5048720;28;20059;-67
2022/08/17 09:32:02;;;;;;;65.80;44.15;;;21.20;99.90;;;;;;5049619;28;20087;-67
2022/08/17 09:34:32;;;;;;;61.60;38.67;;;21.30;99.90;;;;;;5046494;28;20049;-73
2022/08/17 09:37:16;;;;;;;59.55;40.78;;;21.30;99.90;;;;;;5048958;28;20135;-68
2022/08/17 09:39:52;;;;;;;65.32;43.13;;;21.30;99.90;;;;;;5049523;28;20045;-72
2022/08/17 09:42:28;;;;;;;72.18;45.92;;;21.30;99.90;;;;;;5047652;28;20041;-73
2022/08/17 09:44:58;;;;;;;61.85;36.92;;;21.30;99.90;;;;;;5063353;28;20045;-69
2022/08/17 09:47:44;;;;;;;68.65;42.53;;;21.40;99.90;;;;;;5049352;28;20049;-71
2022/08/17 09:50:30;;;;;;;65.15;42.92;;;21.40;99.90;;;;;;5044188;28;20124;-70
2022/08/17 09:52:57;;;;;;;68.07;44.28;;;21.50;99.90;;;;;;5049386;28;20389;-72
2022/08/17 09:55:44;;;;;;;68.38;46.92;;;21.60;99.90;;;;;;5049387;28;20428;-71
2022/08/17 09:58:31;;;;;;;65.65;46.00;;;21.60;99.90;;;;;;5032747;28;20029;-68
2022/08/17 10:01:15;;;;;;;67.78;47.00;;;21.70;99.90;;;;;;5049461;28;20500;-72
2022/08/17 10:04:08;;;;;;;69.85;45.38;;;21.80;99.90;;;;;;5049463;28;20052;-71
2022/08/17 10:06:57;;;;;;;74.18;49.80;;;21.70;99.90;;;;;;5046744;28;20045;-72
2022/08/17 10:09:54;;;;;;;70.13;49.45;;;21.90;99.90;;;;;;5049395;28;20053;-69
2022/08/17 10:12:30;;;;;;;74.35;49.45;;;21.70;99.90;;;;;;5048753;28;20033;-71
2022/08/17 10:15:21;;;;;;;75.45;49.05;;;21.90;99.90;;;;;;5048682;28;20499;-69
2022/08/17 10:18:20;;;;;;;73.20;48.40;;;22.00;99.90;;;;;;5045774;28;20122;-71
2022/08/17 10:26:11;;;;;;;68.30;46.78;;;22.10;99.90;;;;;;5046114;28;20041;-68
2022/08/17 10:26:45;;;;;;;68.95;47.05;;;22.00;99.90;;;;;;5020450;28;20045;-68
2022/08/17 10:29:21;;;;;;;70.05;47.80;;;22.00;99.90;;;;;;5029099;28;20406;-68
2022/08/17 10:31:59;;;;;;;66.10;45.75;;;22.30;99.90;;;;;;5045799;28;20045;-69
2022/08/17 10:35:06;;;;;;;66.45;44.33;;;22.40;99.90;;;;;;5028903;28;20496;-71
2022/08/17 10:37:45;;;;;;;61.25;43.03;;;22.60;99.90;;;;;;5045245;28;20121;-69
2022/08/17 10:40:38;;;;;;;58.65;39.90;;;22.80;99.90;;;;;;5047078;28;20380;-71
2022/08/17 10:43:43;;;;;;;61.35;40.78;;;23.00;99.90;;;;;;5047107;28;20140;-71
2022/08/17 10:46:24;;;;;;;51.47;37.05;;;23.10;99.90;;;;;;5048069;28;20137;-71
2022/08/17 10:49:21;;;;;;;51.47;38.55;;;23.30;99.90;;;;;;5048429;28;20083;-70
2022/08/17 10:51:58;;;;;;;56.15;38.63;;;23.40;99.90;;;;;;5048728;28;20225;-68
2022/08/17 10:54:24;;;;;;;52.03;38.03;;;23.50;99.90;;;;;;5048683;28;20076;-68
2022/08/17 10:56:52;;;;;;;49.22;36.53;;;23.60;99.90;;;;;;5045268;28;20043;-71
2022/08/17 10:59:47;;;;;;;51.22;38.28;;;23.50;99.90;;;;;;5048942;28;20101;-70
2022/08/17 11:02:29;;;;;;;50.03;36.15;;;23.50;99.90;;;;;;5026199;28;20411;-73
2022/08/17 11:05:07;;;;;;;;;;;23.50;99.90;;;;;;5053073;28;20044;-70
2022/08/17 11:08:13;;;;;;;45.13;33.05;;;23.50;99.90;;;;;;5051877;28;19921;-69
2022/08/17 11:11:11;;;;;;;43.30;33.22;;;23.50;99.90;;;;;;5051077;28;20045;-69
2022/08/17 11:13:52;;;;;;;43.85;34.10;;;23.60;99.90;;;;;;5068607;28;20041;-68
2022/08/17 11:16:44;;;;;;;43.28;33.08;;;23.60;99.90;;;;;;5051361;28;20414;-70
2022/08/17 11:19:09;;;;;;;;;;;23.50;99.90;;;;;;5052588;28;20045;-69
2022/08/17 11:22:00;;;;;;;41.15;31.30;;;23.50;99.90;;;;;;5051735;28;19963;-69
2022/08/17 11:24:47;;;;;;;45.63;32.97;;;23.40;99.90;;;;;;5052158;28;20056;-71
2022/08/17 11:27:26;;;;;;;40.22;32.08;;;23.40;99.90;;;;;;5043774;28;20049;-69
2022/08/17 11:29:59;;;;;;;41.70;33.17;;;23.40;99.90;;;;;;5052114;28;20514;-71
2022/08/17 11:32:50;;;;;;;39.38;31.55;;;23.40;99.90;;;;;;5033643;28;20092;-71
2022/08/17 11:35:22;;;;;;;39.80;30.95;;;23.30;99.90;;;;;;5051909;28;20040;-70
2022/08/17 11:38:25;;;;;;;39.03;31.05;;;23.30;99.90;;;;;;5051387;28;20037;-71
2022/08/17 11:40:59;;;;;;;37.03;28.05;;;23.30;99.90;;;;;;5051679;28;20029;-70
2022/08/17 11:43:46;;;;;;;37.75;28.85;;;23.30;99.90;;;;;;5048083;28;20053;-68
2022/08/17 11:46:18;;;;;;;39.25;29.70;;;23.20;99.90;;;;;;5044938;28;20482;-70
2022/08/17 11:52:12;;;;;;;38.92;29.73;;;23.10;99.90;;;;;;5067885;28;20109;-69
2022/08/17 11:54:45;;;;;;;39.05;29.75;;;23.00;99.90;;;;;;5051711;28;20139;-70
2022/08/17 11:57:26;;;;;;;40.33;29.83;;;23.00;99.90;;;;;;5050669;28;20052;-69
2022/08/17 12:00:10;;;;;;;38.35;30.35;;;23.00;99.90;;;;;;5064006;28;20052;-69
2022/08/17 12:02:43;;;;;;;37.78;26.75;;;23.00;99.90;;;;;;5051476;28;20119;-68
2022/08/17 12:05:23;;;;;;;39.65;30.83;;;23.00;99.90;;;;;;5050991;28;20395;-69
2022/08/17 12:08:20;;;;;;;41.97;31.08;;;23.00;99.90;;;;;;5049737;28;20053;-69
2022/08/17 12:10:57;;;;;;;44.47;31.45;;;23.00;99.90;;;;;;5049483;28;20053;-71
2022/08/17 12:13:24;;;;;;;40.80;30.50;;;23.00;99.90;;;;;;5064466;28;20049;-69
2022/08/17 12:15:52;;;;;;;41.60;30.00;;;23.00;99.90;;;;;;5049682;28;20041;-69
2022/08/17 12:18:27;;;;;;;39.75;29.98;;;23.00;99.90;;;;;;5050104;28;20455;-68
2022/08/17 12:21:19;;;;;;;39.00;30.55;;;22.90;99.90;;;;;;5050914;28;20063;-69
2022/08/17 12:24:21;;;;;;;40.17;30.45;;;22.90;99.90;;;;;;5045303;28;20055;-69
2022/08/17 12:26:54;;;;;;;39.65;29.98;;;23.00;99.90;;;;;;5055429;28;20084;-69
2022/08/17 12:29:20;;;;;;;34.28;27.58;;;23.10;99.90;;;;;;5043211;28;20454;-71
2022/08/17 12:31:51;;;;;;;33.75;27.63;;;23.10;99.90;;;;;;5048197;28;20041;-70
2022/08/17 12:34:21;;;;;;;34.45;28.02;;;23.10;99.90;;;;;;5049732;28;20119;-70
2022/08/17 12:36:49;;;;;;;37.70;27.83;;;23.10;99.90;;;;;;5049263;28;20076;-70
2022/08/17 12:39:21;;;;;;;36.15;27.52;;;23.20;99.90;;;;;;5061660;28;20118;-69
2022/08/17 12:41:50;;;;;;;34.63;27.10;;;23.30;99.90;;;;;;5069886;28;20040;-70
2022/08/17 12:44:21;;;;;;;34.75;27.15;;;23.30;99.90;;;;;;5054559;28;20256;-69
2022/08/17 12:46:54;;;;;;;33.78;27.15;;;23.40;99.90;;;;;;5046125;28;20114;-70
2022/08/17 12:49:36;;;;;;;38.70;28.05;;;23.50;99.90;;;;;;5044669;28;20084;-71
2022/08/17 12:52:12;;;;;;;37.65;28.70;;;23.50;99.90;;;;;;5046588;28;20796;-70
2022/08/17 12:54:45;;;;;;;35.55;26.85;;;23.50;99.90;;;;;;5047555;28;20044;-69
2022/08/17 12:57:15;;;;;;;38.85;28.55;;;23.50;99.90;;;;;;5048193;28;20048;-72
2022/08/17 12:59:46;;;;;;;43.88;27.27;;;23.50;99.90;;;;;;5048571;28;20068;-69
2022/08/17 13:02:28;;;;;;;36.93;28.50;;;23.50;99.90;;;;;;5065753;28;20040;-71
2022/08/17 13:04:56;;;;;;;;;;;23.40;99.90;;;;;;5049840;28;20041;-69
2022/08/17 13:07:41;;;;;;;36.35;27.98;;;23.40;99.90;;;;;;5064611;28;20268;-71
2022/08/17 13:10:12;;;;;;;34.17;26.48;;;23.30;99.90;;;;;;5033476;28;20048;-70
2022/08/17 13:12:38;;;;;;;33.27;25.53;;;23.30;99.90;;;;;;5049108;28;20044;-71
2022/08/17 13:15:04;;;;;;;37.10;25.60;;;23.20;99.90;;;;;;5062718;28;20400;-72
2022/08/17 13:17:33;;;;;;;34.38;25.88;;;23.20;99.90;;;;;;5048177;28;20041;-72
2022/08/17 13:20:00;;;;;;;34.70;23.77;;;23.10;99.90;;;;;;5047801;28;20044;-73
2022/08/17 13:22:28;;;;;;;28.35;22.70;;;23.00;99.90;;;;;;5049054;28;20048;-67
2022/08/17 13:25:04;;;;;;;30.17;22.13;;;22.90;99.90;;;;;;5047467;28;20049;-69